createdAt,value
2022-11-19T00:00:01.212Z,16.60
2022-11-19T00:05:05.132Z,16.55
2022-11-19T00:10:10.735Z,15.85
2022-11-19T00:15:14.618Z,17.65
2022-11-19T00:20:18.621Z,18.20
2022-11-19T00:25:24.883Z,18.98
2022-11-19T00:35:52.398Z,20.37
2022-11-19T00:40:57.748Z,20.42
2022-11-19T00:46:01.523Z,21.65
2022-11-19T00:51:05.268Z,21.52
2022-11-19T00:56:13.464Z,21.70
2022-11-19T01:01:19.505Z,18.17
2022-11-19T01:06:26.748Z,19.52
2022-11-19T01:11:33.707Z,19.80
2022-11-19T01:16:39.407Z,19.33
2022-11-19T01:21:43.242Z,18.37
2022-11-19T01:26:48.337Z,18.02
2022-11-19T01:31:51.997Z,15.57
2022-11-19T01:36:55.820Z,14.65
2022-11-19T01:42:00.869Z,14.93
2022-11-19T01:47:04.574Z,14.85
2022-11-19T01:52:08.377Z,15.98
2022-11-19T01:57:16.479Z,16.77
2022-11-19T02:02:22.657Z,15.77
2022-11-19T02:07:29.394Z,16.77
2022-11-19T02:12:46.734Z,15.50
2022-11-19T02:18:25.872Z,14.45
2022-11-19T02:23:58.525Z,15.27
2022-11-19T02:29:13.866Z,15.05
2022-11-19T02:34:25.742Z,16.08
2022-11-19T02:39:38.012Z,16.52
2022-11-19T02:45:00.002Z,16.10
2022-11-19T02:50:10.723Z,17.52
2022-11-19T02:55:19.986Z,16.15
2022-11-19T03:00:41.255Z,15.70
2022-11-19T03:05:51.615Z,13.45
2022-11-19T03:11:07.098Z,14.07
2022-11-19T03:16:35.958Z,13.20
2022-11-19T03:21:46.985Z,13.62
2022-11-19T03:26:55.565Z,14.35
2022-11-19T03:32:04.446Z,16.00
2022-11-19T03:37:10.728Z,14.38
2022-11-19T03:42:18.209Z,15.38
2022-11-19T03:47:25.677Z,14.97
2022-11-19T03:52:30.867Z,16.50
2022-11-19T03:57:34.837Z,16.15
2022-11-19T04:02:38.545Z,15.55
2022-11-19T04:07:43.589Z,15.68
2022-11-19T04:12:47.476Z,15.05
2022-11-19T04:17:51.089Z,17.25
2022-11-19T04:22:56.139Z,16.95
2022-11-19T04:27:59.770Z,17.20
2022-11-19T04:33:03.511Z,17.60
2022-11-19T04:38:08.598Z,17.83
2022-11-19T04:43:12.261Z,17.85
2022-11-19T04:48:15.916Z,19.37
2022-11-19T04:53:20.991Z,19.17
2022-11-19T04:58:24.718Z,19.37
2022-11-19T05:03:28.629Z,21.92
2022-11-19T05:08:33.627Z,22.87
2022-11-19T05:13:37.463Z,22.85
2022-11-19T05:18:41.243Z,22.83
2022-11-19T05:23:46.313Z,22.55
2022-11-19T05:28:50.062Z,23.05
2022-11-19T05:33:53.746Z,23.95
2022-11-19T05:38:58.852Z,24.67
2022-11-19T05:44:02.782Z,26.33
2022-11-19T05:49:06.582Z,25.48
2022-11-19T05:54:12.018Z,26.62
2022-11-19T05:59:15.854Z,26.73
2022-11-19T06:04:19.663Z,27.10
2022-11-19T06:09:24.785Z,27.98
2022-11-19T06:14:28.670Z,28.10
2022-11-19T06:19:32.363Z,27.95
2022-11-19T06:24:37.429Z,27.33
2022-11-19T06:29:41.135Z,29.08
2022-11-19T06:34:44.802Z,28.08
2022-11-19T06:39:49.902Z,29.65
2022-11-19T06:44:53.691Z,30.58
2022-11-19T06:49:57.430Z,29.77
2022-11-19T06:55:02.705Z,31.52
2022-11-19T07:00:07.586Z,30.52
2022-11-19T07:05:11.365Z,29.77
2022-11-19T07:10:17.155Z,31.23
2022-11-19T07:15:20.943Z,31.55
2022-11-19T07:20:24.626Z,31.33
2022-11-19T07:25:29.993Z,32.65
2022-11-19T07:30:33.737Z,32.78
2022-11-19T07:35:37.454Z,32.03
2022-11-19T07:40:42.594Z,33.63
2022-11-19T07:45:46.408Z,34.22
2022-11-19T07:50:56.512Z,31.80
2022-11-19T07:56:02.538Z,34.03
2022-11-19T08:01:10.270Z,31.75
2022-11-19T08:06:14.075Z,34.90
2022-11-19T08:11:19.423Z,34.22
2022-11-19T08:16:40.802Z,34.55
2022-11-19T08:21:46.519Z,34.15
2022-11-19T08:26:51.669Z,34.30
2022-11-19T08:31:55.397Z,33.42
2022-11-19T08:36:59.185Z,34.80
2022-11-19T08:42:21.810Z,34.45
2022-11-19T08:47:25.513Z,33.53
2022-11-19T08:52:29.363Z,33.50
2022-11-19T08:57:34.523Z,33.17
2022-11-19T09:02:38.381Z,34.15
2022-11-19T09:07:42.156Z,32.85
2022-11-19T09:12:47.442Z,36.40
2022-11-19T09:17:51.196Z,33.92
2022-11-19T09:22:54.915Z,34.17
2022-11-19T09:27:59.997Z,35.00
2022-11-19T09:33:03.802Z,32.80
2022-11-19T09:38:07.532Z,31.70
2022-11-19T09:43:21.255Z,32.53
2022-11-19T09:48:33.215Z,33.10
2022-11-19T09:53:43.772Z,31.80
2022-11-19T09:58:49.137Z,31.23
2022-11-19T10:03:55.615Z,32.67
2022-11-19T10:09:34.004Z,32.63
2022-11-19T10:14:56.443Z,32.10
2022-11-19T10:20:14.462Z,30.85
2022-11-19T10:25:19.987Z,33.22
2022-11-19T10:30:26.795Z,30.92
2022-11-19T10:35:33.391Z,30.37
2022-11-19T10:40:40.964Z,30.33
2022-11-19T10:45:46.009Z,32.95
2022-11-19T10:50:50.734Z,30.25
2022-11-19T10:55:58.607Z,29.50
2022-11-19T11:01:05.961Z,30.77
2022-11-19T11:06:10.356Z,29.77
2022-11-19T11:11:14.223Z,29.60
2022-11-19T11:16:21.425Z,30.30
2022-11-19T11:21:39.720Z,30.23
2022-11-19T11:31:49.231Z,27.23
2022-11-19T11:36:54.056Z,27.62
2022-11-19T11:42:05.797Z,27.67
2022-11-19T11:47:16.171Z,26.02
2022-11-19T11:52:23.973Z,27.70
2022-11-19T11:57:29.384Z,27.90
2022-11-19T12:02:36.436Z,27.85
2022-11-19T12:08:03.782Z,31.08
2022-11-19T12:13:46.645Z,27.03
2022-11-19T12:19:09.053Z,25.80
2022-11-19T12:24:30.539Z,27.13
2022-11-19T12:29:42.765Z,25.60
2022-11-19T12:35:13.939Z,23.33
2022-11-19T12:40:38.373Z,23.40
2022-11-19T12:45:53.431Z,23.02
2022-11-19T12:51:13.170Z,22.87
2022-11-19T12:56:31.296Z,22.65
2022-11-19T13:06:49.955Z,21.33
2022-11-19T13:11:57.754Z,19.62
2022-11-19T13:17:04.901Z,20.48
2022-11-19T13:22:17.200Z,20.73
2022-11-19T13:27:25.254Z,18.42
2022-11-19T13:32:35.882Z,20.95
2022-11-19T13:37:47.678Z,19.35
2022-11-19T13:48:37.599Z,18.48
2022-11-19T13:53:46.217Z,18.55
2022-11-19T13:58:52.613Z,21.20
2022-11-19T14:04:16.142Z,18.35
2022-11-19T14:09:32.480Z,19.65
2022-11-19T14:15:06.591Z,20.58
2022-11-19T14:20:50.194Z,17.75
2022-11-19T14:26:27.779Z,18.17
2022-11-19T14:31:31.528Z,17.60
2022-11-19T14:36:46.187Z,17.70
2022-11-19T14:42:14.951Z,16.90
2022-11-19T14:47:39.275Z,16.10
2022-11-19T14:52:52.982Z,17.92
2022-11-19T14:58:02.624Z,18.50
2022-11-19T15:03:09.641Z,16.17
2022-11-19T15:08:31.395Z,17.85
2022-11-19T15:13:37.613Z,15.85
2022-11-19T15:19:19.320Z,17.37
2022-11-19T15:24:36.255Z,15.93
2022-11-19T15:30:07.117Z,15.13
2022-11-19T15:35:28.838Z,15.15
2022-11-19T15:40:35.179Z,17.08
2022-11-19T15:45:46.123Z,16.70
2022-11-19T15:50:50.649Z,15.88
2022-11-19T15:55:57.801Z,16.37
2022-11-19T16:01:03.411Z,15.07
2022-11-19T16:06:11.371Z,14.77
2022-11-19T16:11:37.756Z,15.30
2022-11-19T16:17:00.523Z,15.95
2022-11-19T16:22:06.194Z,15.45
2022-11-19T16:27:13.152Z,16.25
2022-11-19T16:32:20.632Z,17.00
2022-11-19T16:37:25.385Z,15.10
2022-11-19T16:42:30.866Z,15.68
2022-11-19T16:47:38.526Z,17.35
2022-11-19T16:52:43.986Z,15.88
2022-11-19T16:57:48.982Z,15.48
2022-11-19T17:02:54.167Z,14.75
2022-11-19T17:08:06.131Z,13.80
2022-11-19T17:13:29.597Z,14.90
2022-11-19T17:18:35.383Z,15.45
2022-11-19T17:23:48.857Z,14.95
2022-11-19T17:28:58.302Z,15.23
2022-11-19T17:34:12.315Z,15.27
2022-11-19T17:39:21.088Z,15.50
2022-11-19T17:44:34.664Z,14.85
2022-11-19T17:49:39.914Z,13.85
2022-11-19T17:54:46.420Z,14.35
2022-11-19T17:59:50.179Z,13.02
2022-11-19T18:04:55.262Z,12.68
2022-11-19T18:09:58.963Z,12.88
2022-11-19T18:15:02.802Z,11.68
2022-11-19T18:20:09.827Z,12.18
2022-11-19T18:25:15.804Z,14.73
2022-11-19T18:30:19.698Z,17.20
2022-11-19T18:35:27.681Z,15.18
2022-11-19T18:40:31.492Z,15.63
2022-11-19T18:45:35.221Z,13.43
2022-11-19T18:50:41.706Z,13.95
2022-11-19T18:55:48.280Z,11.40
2022-11-19T19:00:52.487Z,11.90
2022-11-19T19:05:57.526Z,11.48
2022-11-19T19:11:15.615Z,12.15
2022-11-19T19:16:19.389Z,11.50
2022-11-19T19:21:24.680Z,12.05
2022-11-19T19:26:28.417Z,12.40
2022-11-19T19:31:32.422Z,12.60
2022-11-19T19:36:37.635Z,12.57
2022-11-19T19:41:41.458Z,12.73
2022-11-19T19:46:47.814Z,16.40
2022-11-19T19:51:53.146Z,14.05
2022-11-19T19:56:56.832Z,12.77
2022-11-19T20:02:00.639Z,13.25
2022-11-19T20:07:05.754Z,12.43
2022-11-19T20:12:09.513Z,11.93
2022-11-19T20:17:13.367Z,11.63
2022-11-19T20:22:18.465Z,12.65
2022-11-19T20:27:22.887Z,10.95
2022-11-19T20:32:26.734Z,12.13
2022-11-19T20:37:32.035Z,11.65
2022-11-19T20:42:53.378Z,11.15
2022-11-19T20:47:57.431Z,11.25
2022-11-19T20:53:02.511Z,10.48
2022-11-19T20:58:06.250Z,10.15
2022-11-19T21:03:10.055Z,10.43
2022-11-19T21:08:16.363Z,10.52
2022-11-19T21:13:20.089Z,10.60
2022-11-19T21:18:24.621Z,9.90
2022-11-19T21:23:30.445Z,11.98
2022-11-19T21:28:35.279Z,11.23
2022-11-19T21:33:39.037Z,9.65
2022-11-19T21:38:44.088Z,9.77
2022-11-19T21:43:47.890Z,9.98
2022-11-19T21:48:51.663Z,10.82
2022-11-19T21:53:58.082Z,9.55
2022-11-19T21:59:01.753Z,10.52
2022-11-19T22:04:06.021Z,12.00
2022-11-19T22:09:11.209Z,11.30
2022-11-19T22:14:14.953Z,12.05
2022-11-19T22:19:19.188Z,13.07
2022-11-19T22:24:24.509Z,12.00
2022-11-19T22:29:29.111Z,11.32
2022-11-19T22:34:32.823Z,10.80
2022-11-19T22:39:37.851Z,11.25
2022-11-19T22:44:41.693Z,11.48
2022-11-19T22:49:45.455Z,12.20
2022-11-19T22:54:50.522Z,11.63
2022-11-19T22:59:54.373Z,11.80
2022-11-19T23:04:59.182Z,16.52
2022-11-19T23:10:04.525Z,13.25
2022-11-19T23:15:08.929Z,13.32
2022-11-19T23:20:13.001Z,16.37
2022-11-19T23:25:18.109Z,14.38
2022-11-19T23:30:21.882Z,13.10
2022-11-19T23:35:25.589Z,13.48
2022-11-19T23:40:30.622Z,12.37
2022-11-19T23:45:36.548Z,12.18
2022-11-19T23:50:40.255Z,12.80
2022-11-19T23:55:48.422Z,13.60
